Time;durP1;ratioP1;P1;durP2;ratioP2;P2;SDS_P1;SDS_P2;PMS_P1;PMS_P2;Temp;Humidity;BMP_temperature;BMP_pressure;BME280_temperature;BME280_humidity;BME280_pressure;Samples;Min_cycle;Max_cycle;Signal;HPM_P1;HPM_P2
2023/03/23 00:01:31;;;;;;;4.30;3.97;;;12.90;99.90;;;;;;5086755;28;20252;-58
2023/03/23 00:03:59;;;;;;;4.20;4.00;;;12.90;99.90;;;;;;5090439;28;20203;-59
2023/03/23 00:06:27;;;;;;;4.90;3.73;;;12.90;99.90;;;;;;5089527;28;20262;-59
2023/03/23 00:08:59;;;;;;;4.50;4.10;;;13.00;99.90;;;;;;5088070;28;20231;-59
2023/03/23 00:11:29;;;;;;;5.07;4.63;;;12.90;99.90;;;;;;5088009;28;20215;-59
2023/03/23 00:14:00;;;;;;;5.40;4.77;;;13.00;99.90;;;;;;5080718;28;20230;-59
2023/03/23 00:16:30;;;;;;;4.83;4.43;;;12.90;99.90;;;;;;5081995;28;20199;-57
2023/03/23 00:18:59;;;;;;;4.93;4.60;;;12.90;99.90;;;;;;5078340;28;20708;-59
2023/03/23 00:21:33;;;;;;;5.13;4.70;;;12.80;99.90;;;;;;5079290;28;20668;-59
2023/03/23 00:24:03;;;;;;;6.30;4.20;;;12.80;99.90;;;;;;5086527;28;20253;-59
2023/03/23 00:26:33;;;;;;;5.30;4.80;;;12.80;99.90;;;;;;5087371;28;20214;-59
2023/03/23 00:29:01;;;;;;;6.40;4.73;;;12.80;99.90;;;;;;5088457;28;20219;-59
2023/03/23 00:31:32;;;;;;;5.03;4.50;;;12.80;99.90;;;;;;5085963;28;20199;-59
2023/03/23 00:34:03;;;;;;;4.70;4.30;;;12.80;99.90;;;;;;5085608;28;20555;-59
2023/03/23 00:36:32;;;;;;;4.50;4.10;;;12.90;99.90;;;;;;5086534;28;20726;-59
2023/03/23 00:39:00;;;;;;;5.13;4.67;;;12.90;99.90;;;;;;5087063;28;20219;-59
2023/03/23 00:41:30;;;;;;;4.60;4.30;;;12.80;99.90;;;;;;5086571;28;20306;-59
2023/03/23 00:44:00;;;;;;;4.53;4.13;;;12.80;99.90;;;;;;5081463;28;20219;-59
2023/03/23 00:46:28;;;;;;;4.30;3.93;;;12.80;99.90;;;;;;5083344;28;20241;-58
2023/03/23 00:48:56;;;;;;;5.53;4.20;;;12.80;99.90;;;;;;5083725;28;20550;-59
2023/03/23 00:51:24;;;;;;;4.47;3.97;;;12.70;99.90;;;;;;5084566;28;20223;-59
2023/03/23 00:53:51;;;;;;;5.03;3.70;;;12.70;99.90;;;;;;5090019;28;20222;-59
2023/03/23 00:56:19;;;;;;;4.13;3.90;;;12.70;99.90;;;;;;5084894;28;21131;-59
2023/03/23 00:58:47;;;;;;;3.93;3.60;;;12.70;99.90;;;;;;5079283;28;20206;-59
2023/03/23 01:01:15;;;;;;;3.83;3.53;;;12.80;99.90;;;;;;5082637;28;20187;-59
2023/03/23 01:03:42;;;;;;;4.07;3.77;;;12.80;99.90;;;;;;5078613;28;20701;-59
2023/03/23 01:06:12;;;;;;;3.40;3.10;;;12.80;99.90;;;;;;5081903;28;20296;-59
2023/03/23 01:08:44;;;;;;;5.93;4.07;;;12.80;99.90;;;;;;5084931;28;20219;-59
2023/03/23 01:11:15;;;;;;;4.03;3.40;;;12.80;99.90;;;;;;5080834;28;20222;-59
2023/03/23 01:13:42;;;;;;;3.20;3.10;;;12.80;99.90;;;;;;5086145;28;20188;-59
2023/03/23 01:16:11;;;;;;;3.80;3.50;;;12.90;99.90;;;;;;5082302;28;20210;-59
2023/03/23 01:18:40;;;;;;;4.27;3.87;;;12.80;99.90;;;;;;5069457;28;20293;-59
2023/03/23 01:21:10;;;;;;;3.23;3.13;;;12.80;99.90;;;;;;5078308;28;20240;-59
2023/03/23 01:23:37;;;;;;;4.90;4.03;;;12.80;99.90;;;;;;5077679;28;20818;-59
2023/03/23 01:26:07;;;;;;;4.47;3.50;;;12.80;99.90;;;;;;5083451;28;20292;-59
2023/03/23 01:28:34;;;;;;;4.03;3.50;;;12.80;99.90;;;;;;5087438;28;20199;-59
2023/03/23 01:31:03;;;;;;;4.30;3.60;;;12.80;99.90;;;;;;5086539;28;20590;-59
2023/03/23 01:33:32;;;;;;;3.43;3.13;;;12.80;99.90;;;;;;5087744;28;20302;-59
2023/03/23 01:36:02;;;;;;;4.33;3.33;;;12.80;99.90;;;;;;5085482;28;20303;-59
2023/03/23 01:38:30;;;;;;;3.50;3.20;;;12.80;99.90;;;;;;5086813;28;20215;-59
2023/03/23 01:40:58;;;;;;;3.63;3.30;;;12.80;99.90;;;;;;5089303;28;20797;-59
2023/03/23 01:43:25;;;;;;;3.30;3.20;;;12.80;99.90;;;;;;5064108;28;20216;-59
2023/03/23 01:45:52;;;;;;;3.20;3.00;;;12.80;99.90;;;;;;5086138;28;20207;-59
2023/03/23 01:48:25;;;;;;;3.30;3.10;;;12.80;99.90;;;;;;5081238;28;22230;-59
2023/03/23 01:50:59;;;;;;;3.43;3.13;;;12.70;99.90;;;;;;5082124;28;20626;-59
2023/03/23 01:53:32;;;;;;;3.13;2.97;;;12.70;99.90;;;;;;5085463;28;20230;-59
2023/03/23 01:56:00;;;;;;;3.53;2.77;;;12.80;99.90;;;;;;5083245;28;20241;-58
2023/03/23 01:58:31;;;;;;;3.00;2.90;;;12.80;99.90;;;;;;5086881;28;20195;-58
2023/03/23 02:01:02;;;;;;;3.03;2.77;;;12.80;99.90;;;;;;5083575;28;20200;-59
2023/03/23 02:03:32;;;;;;;4.20;3.13;;;12.80;99.90;;;;;;5083770;28;20226;-59
2023/03/23 02:06:00;;;;;;;2.93;2.40;;;12.80;99.90;;;;;;5083090;28;20230;-59
2023/03/23 02:08:29;;;;;;;2.97;2.70;;;12.80;99.90;;;;;;5080035;28;20265;-59
2023/03/23 02:10:57;;;;;;;4.00;2.77;;;12.80;99.90;;;;;;5079654;28;20238;-59
2023/03/23 02:13:24;;;;;;;2.77;2.50;;;12.70;99.90;;;;;;5079823;28;20192;-59
2023/03/23 02:16:03;;;;;;;3.70;2.47;;;12.70;99.90;;;;;;5078274;28;20215;-59
2023/03/23 02:18:52;;;;;;;2.63;2.40;;;12.70;99.90;;;;;;5076365;28;20235;-59
2023/03/23 02:21:59;;;;;;;3.90;2.23;;;12.70;99.90;;;;;;5082141;28;20227;-59
2023/03/23 02:25:00;;;;;;;4.57;2.50;;;12.70;99.90;;;;;;5070603;28;20233;-59
2023/03/23 02:27:53;;;;;;;3.60;2.37;;;12.70;99.90;;;;;;5088702;28;20693;-59
2023/03/23 02:30:46;;;;;;;4.33;2.10;;;12.60;99.90;;;;;;5085800;28;20234;-59
2023/03/23 02:33:37;;;;;;;7.13;2.60;;;12.70;99.90;;;;;;5062431;28;20216;-59
2023/03/23 02:36:11;;;;;;;3.47;2.50;;;12.70;99.90;;;;;;5065485;28;20212;-59
2023/03/23 02:38:44;;;;;;;4.30;2.50;;;12.60;99.90;;;;;;5082673;28;20224;-59
2023/03/23 02:41:12;;;;;;;6.37;1.90;;;12.60;99.90;;;;;;5067162;28;20296;-59
2023/03/23 02:43:45;;;;;;;3.30;2.03;;;12.60;99.90;;;;;;5067950;28;20637;-59
2023/03/23 02:46:14;;;;;;;4.83;2.30;;;12.60;99.90;;;;;;5068480;28;20184;-59
2023/03/23 02:48:45;;;;;;;2.43;2.20;;;12.60;99.90;;;;;;5067706;28;20219;-59
2023/03/23 02:51:13;;;;;;;4.83;2.07;;;12.60;99.90;;;;;;5081446;28;20211;-59
2023/03/23 02:53:44;;;;;;;2.50;2.27;;;12.50;99.90;;;;;;5085768;28;20215;-59
2023/03/23 02:56:13;;;;;;;3.97;2.20;;;12.60;99.90;;;;;;5087245;28;20262;-59
2023/03/23 02:58:40;;;;;;;2.03;1.87;;;12.60;99.90;;;;;;5085263;28;20192;-59
2023/03/23 03:01:51;;;;;;;2.80;2.00;;;12.60;99.90;;;;;;5087490;28;20191;-59
2023/03/23 03:04:22;;;;;;;4.97;2.30;;;12.60;99.90;;;;;;5088716;28;20565;-59
2023/03/23 03:07:06;;;;;;;2.27;2.07;;;12.50;99.90;;;;;;5084792;28;20224;-59
2023/03/23 03:09:42;;;;;;;3.93;2.10;;;12.60;99.90;;;;;;5086621;28;20234;-59
2023/03/23 03:12:15;;;;;;;5.03;2.60;;;12.50;99.90;;;;;;5084529;28;20219;-59
2023/03/23 03:14:49;;;;;;;2.37;1.83;;;12.60;99.90;;;;;;5089398;28;20245;-59
2023/03/23 03:17:24;;;;;;;2.73;1.80;;;12.60;99.90;;;;;;5091125;28;20246;-59
2023/03/23 03:19:57;;;;;;;2.67;1.90;;;12.60;99.90;;;;;;5075557;28;20234;-59
2023/03/23 03:22:28;;;;;;;3.57;1.90;;;12.60;99.90;;;;;;5054360;28;21069;-59
2023/03/23 03:24:58;;;;;;;4.43;1.73;;;12.60;99.90;;;;;;5053247;28;21118;-59
2023/03/23 03:27:26;;;;;;;3.93;2.10;;;12.60;99.90;;;;;;5071088;28;20231;-59
2023/03/23 03:29:59;;;;;;;4.93;1.70;;;12.70;99.90;;;;;;5068249;28;20216;-59
2023/03/23 03:32:32;;;;;;;4.30;1.90;;;12.60;99.90;;;;;;5069538;28;21720;-59
2023/03/23 03:35:02;;;;;;;4.67;2.33;;;12.70;99.90;;;;;;5070903;28;20341;-59
2023/03/23 03:37:36;;;;;;;2.23;2.13;;;12.60;99.90;;;;;;5068095;28;20343;-59
2023/03/23 03:40:10;;;;;;;2.77;2.13;;;12.60;99.90;;;;;;5068808;28;20211;-59
2023/03/23 03:42:38;;;;;;;3.17;1.97;;;12.60;99.90;;;;;;5063817;28;20212;-59
2023/03/23 03:45:07;;;;;;;2.40;2.20;;;12.60;99.90;;;;;;5065891;28;20229;-59
2023/03/23 03:47:34;;;;;;;3.87;1.80;;;12.60;99.90;;;;;;5067762;28;20224;-59
2023/03/23 03:50:03;;;;;;;4.67;2.10;;;12.60;99.90;;;;;;5063478;28;20575;-59
2023/03/23 03:52:30;;;;;;;2.57;2.20;;;12.50;99.90;;;;;;5067626;28;20673;-58
2023/03/23 03:54:57;;;;;;;2.50;2.00;;;12.60;99.90;;;;;;5064196;28;20188;-59
2023/03/23 03:57:25;;;;;;;5.30;1.90;;;12.50;99.90;;;;;;5065674;28;20216;-59
2023/03/23 03:59:52;;;;;;;3.60;2.13;;;12.60;99.90;;;;;;5064785;28;20240;-59
2023/03/23 04:02:20;;;;;;;2.30;2.10;;;12.60;99.90;;;;;;5065561;28;20619;-59
2023/03/23 04:04:48;;;;;;;3.17;2.23;;;12.60;99.90;;;;;;5069306;28;20239;-59
2023/03/23 04:07:17;;;;;;;2.83;2.10;;;12.60;99.90;;;;;;5067112;28;20612;-59
2023/03/23 04:09:46;;;;;;;5.00;2.10;;;12.50;99.90;;;;;;5065683;28;20216;-59
2023/03/23 04:12:13;;;;;;;9.37;2.77;;;12.50;99.90;;;;;;5068808;28;20639;-59
2023/03/23 04:14:41;;;;;;;3.27;2.03;;;12.50;99.90;;;;;;5059911;28;20227;-59
2023/03/23 04:17:08;;;;;;;5.80;2.37;;;12.50;99.90;;;;;;5053924;28;20300;-59
2023/03/23 04:19:36;;;;;;;7.83;2.60;;;12.50;99.90;;;;;;5050154;28;20235;-58
2023/03/23 04:22:04;;;;;;;6.90;2.40;;;12.50;99.90;;;;;;5060260;28;20192;-59
2023/03/23 04:24:33;;;;;;;8.70;2.33;;;12.50;99.90;;;;;;5065032;28;20667;-59
2023/03/23 04:27:01;;;;;;;4.47;2.17;;;12.50;99.90;;;;;;5066935;28;20219;-59
2023/03/23 04:29:28;;;;;;;2.93;2.00;;;12.50;99.90;;;;;;5064434;28;20648;-59
2023/03/23 04:31:56;;;;;;;3.67;2.03;;;12.40;99.90;;;;;;5081064;28;20223;-59
2023/03/23 04:34:24;;;;;;;6.23;2.40;;;12.40;99.90;;;;;;5066944;28;20184;-59
2023/03/23 04:36:52;;;;;;;9.27;2.47;;;12.30;99.90;;;;;;5088132;28;20219;-59
2023/03/23 04:39:20;;;;;;;4.03;1.97;;;12.30;99.90;;;;;;5089437;28;20219;-59
2023/03/23 04:41:51;;;;;;;4.80;2.47;;;12.20;99.90;;;;;;5076221;28;20227;-59
2023/03/23 04:44:21;;;;;;;6.17;2.10;;;12.20;99.90;;;;;;5068694;28;20220;-55
2023/03/23 04:46:49;;;;;;;7.47;2.77;;;12.10;99.90;;;;;;5068748;28;20223;-56
2023/03/23 04:49:20;;;;;;;8.13;2.47;;;12.10;99.90;;;;;;5066291;28;20219;-56
2023/03/23 04:51:48;;;;;;;5.93;1.93;;;12.10;99.90;;;;;;5067852;28;20582;-56
2023/03/23 04:54:15;;;;;;;6.23;2.30;;;12.10;99.90;;;;;;5068679;28;20243;-56
2023/03/23 04:56:42;;;;;;;5.30;2.23;;;12.20;99.90;;;;;;5065133;28;20212;-56
2023/03/23 04:59:12;;;;;;;4.80;2.00;;;12.10;99.90;;;;;;5063593;28;20219;-56
2023/03/23 05:01:44;;;;;;;4.53;2.33;;;12.20;99.90;;;;;;5066725;28;20195;-56
2023/03/23 05:04:16;;;;;;;4.37;2.10;;;12.20;99.90;;;;;;5066846;28;20220;-56
2023/03/23 05:06:45;;;;;;;5.37;2.40;;;12.20;99.90;;;;;;5067559;28;20635;-57
2023/03/23 05:09:12;;;;;;;5.90;2.00;;;12.20;99.90;;;;;;5068482;28;20228;-56
2023/03/23 05:11:39;;;;;;;4.30;2.20;;;12.20;99.90;;;;;;5060916;28;20246;-56
2023/03/23 05:14:07;;;;;;;9.07;2.27;;;12.20;99.90;;;;;;5036364;28;20220;-55
2023/03/23 05:16:37;;;;;;;4.17;1.93;;;12.20;99.90;;;;;;5067102;28;20238;-56
2023/03/23 05:19:05;;;;;;;4.47;2.20;;;12.20;99.90;;;;;;5055114;28;20235;-57
2023/03/23 05:21:32;;;;;;;4.07;2.23;;;12.20;99.90;;;;;;5052038;28;20234;-55
2023/03/23 05:24:00;;;;;;;4.10;2.20;;;12.10;99.90;;;;;;5056375;28;20954;-55
2023/03/23 05:26:29;;;;;;;5.57;2.50;;;12.00;99.90;;;;;;5053269;28;20285;-57
2023/03/23 05:28:56;;;;;;;4.73;2.57;;;12.00;99.90;;;;;;5056321;28;20237;-56
2023/03/23 05:31:24;;;;;;;4.23;2.20;;;11.90;99.90;;;;;;5053454;28;20271;-55
2023/03/23 05:33:53;;;;;;;7.50;2.50;;;11.90;99.90;;;;;;5075379;28;20215;-56
2023/03/23 05:36:22;;;;;;;6.30;2.50;;;12.00;99.90;;;;;;5082302;28;20248;-56
2023/03/23 05:38:51;;;;;;;5.20;2.33;;;12.00;99.90;;;;;;5073951;28;20227;-57
2023/03/23 05:41:18;;;;;;;8.13;2.37;;;12.00;99.90;;;;;;5075846;28;20218;-56
2023/03/23 05:43:45;;;;;;;8.00;2.27;;;12.00;99.90;;;;;;5073664;28;21412;-56
2023/03/23 05:46:13;;;;;;;3.53;2.17;;;12.10;99.90;;;;;;5076005;28;20192;-56
2023/03/23 05:48:40;;;;;;;5.00;2.30;;;12.10;99.90;;;;;;5070278;28;20220;-57
2023/03/23 05:51:09;;;;;;;8.70;2.33;;;12.10;99.90;;;;;;5075261;28;20294;-56
2023/03/23 05:53:37;;;;;;;6.83;2.23;;;12.10;99.90;;;;;;5077475;28;20245;-56
2023/03/23 05:56:05;;;;;;;6.27;2.10;;;12.20;99.90;;;;;;5074113;28;20735;-56
2023/03/23 05:58:32;;;;;;;5.37;2.60;;;12.20;99.90;;;;;;5073068;28;20575;-55
2023/03/23 06:00:59;;;;;;;5.77;2.10;;;12.20;99.90;;;;;;5072598;28;20212;-56
2023/03/23 06:03:26;;;;;;;6.37;2.10;;;12.20;99.90;;;;;;5084138;28;20215;-57
2023/03/23 06:05:54;;;;;;;4.90;1.70;;;12.20;99.90;;;;;;5088446;28;20210;-57
2023/03/23 06:08:22;;;;;;;6.03;1.83;;;12.00;99.90;;;;;;5089456;28;20219;-58
2023/03/23 06:10:50;;;;;;;4.67;1.67;;;11.40;99.90;;;;;;5086389;28;20216;-57
2023/03/23 06:13:18;;;;;;;4.63;1.70;;;11.00;99.90;;;;;;5087743;28;20691;-56
2023/03/23 06:15:45;;;;;;;6.33;1.97;;;10.80;99.90;;;;;;5078047;28;20585;-57
2023/03/23 06:18:12;;;;;;;5.20;1.80;;;10.70;99.90;;;;;;5084394;28;20259;-57
2023/03/23 06:20:40;;;;;;;3.70;1.50;;;10.50;99.90;;;;;;5088694;28;20239;-57
2023/03/23 06:23:08;;;;;;;1.63;1.30;;;10.40;99.90;;;;;;5087263;28;20219;-57
2023/03/23 06:25:37;;;;;;;3.37;1.70;;;10.30;99.90;;;;;;5091129;28;20672;-58
2023/03/23 06:28:04;;;;;;;1.60;1.50;;;10.20;99.90;;;;;;5089918;28;20199;-57
2023/03/23 06:30:31;;;;;;;3.67;1.73;;;10.10;99.90;;;;;;5068094;28;20274;-57
2023/03/23 06:32:58;;;;;;;3.00;2.00;;;10.00;99.90;;;;;;5049931;28;20224;-57
2023/03/23 06:35:26;;;;;;;6.03;1.90;;;9.90;99.90;;;;;;5067135;28;20212;-57
2023/03/23 06:37:53;;;;;;;4.27;1.70;;;9.90;99.90;;;;;;5071365;28;20219;-56
2023/03/23 06:40:21;;;;;;;5.73;1.83;;;9.80;99.90;;;;;;5073082;28;20237;-57
2023/03/23 06:42:50;;;;;;;2.53;1.77;;;9.80;99.90;;;;;;5072167;28;20220;-57
2023/03/23 06:45:19;;;;;;;5.70;1.90;;;9.70;99.90;;;;;;5065949;28;20215;-57
2023/03/23 06:47:48;;;;;;;2.17;1.90;;;9.70;99.90;;;;;;5079089;28;20219;-57
2023/03/23 06:50:16;;;;;;;4.00;1.87;;;9.70;99.90;;;;;;5091656;28;20290;-58
2023/03/23 06:52:46;;;;;;;6.00;1.80;;;9.70;99.90;;;;;;5088841;28;20699;-56
2023/03/23 06:55:14;;;;;;;1.67;1.57;;;9.60;99.90;;;;;;5092264;28;21012;-57
2023/03/23 06:57:42;;;;;;;5.80;1.70;;;9.60;99.90;;;;;;5086424;28;20215;-57
2023/03/23 07:00:13;;;;;;;1.90;1.80;;;9.60;99.90;;;;;;5082894;28;20315;-58
2023/03/23 07:02:40;;;;;;;2.30;1.57;;;9.60;99.90;;;;;;5089936;28;20254;-57
2023/03/23 07:05:09;;;;;;;7.57;2.07;;;9.60;99.90;;;;;;5088878;28;20704;-57
2023/03/23 07:07:37;;;;;;;3.20;1.80;;;9.70;99.90;;;;;;5090554;28;20279;-57
2023/03/23 07:10:05;;;;;;;2.50;1.80;;;9.70;99.90;;;;;;5090511;28;20203;-57
2023/03/23 07:12:33;;;;;;;3.23;1.77;;;9.80;99.90;;;;;;5091439;28;20238;-57
2023/03/23 07:15:00;;;;;;;2.13;1.60;;;9.80;99.90;;;;;;5086583;28;20227;-58
2023/03/23 07:17:28;;;;;;;4.67;1.90;;;9.80;99.90;;;;;;5084793;28;20215;-57
2023/03/23 07:19:56;;;;;;;4.70;1.70;;;9.80;99.90;;;;;;5080960;28;20314;-57
2023/03/23 07:22:23;;;;;;;5.57;1.90;;;9.80;99.90;;;;;;5071375;28;20223;-56
2023/03/23 07:24:50;;;;;;;3.43;1.80;;;9.80;99.90;;;;;;5068876;28;20767;-57
2023/03/23 07:27:18;;;;;;;3.70;1.83;;;9.80;99.90;;;;;;5077571;28;20227;-57
2023/03/23 07:29:45;;;;;;;4.20;1.80;;;9.80;99.90;;;;;;5071829;28;20886;-57
2023/03/23 07:32:12;;;;;;;1.80;1.70;;;9.80;99.90;;;;;;5074998;28;20239;-57
2023/03/23 07:34:41;;;;;;;2.60;1.57;;;9.80;99.90;;;;;;5080489;28;20199;-57
2023/03/23 07:37:09;;;;;;;3.53;1.70;;;9.80;99.90;;;;;;5087450;28;20199;-58
2023/03/23 07:39:37;;;;;;;3.37;1.80;;;9.80;99.90;;;;;;5089394;28;20224;-57
2023/03/23 07:42:07;;;;;;;4.13;2.03;;;9.90;99.90;;;;;;5089194;28;20223;-58
2023/03/23 07:44:34;;;;;;;3.13;1.60;;;9.90;99.90;;;;;;5089877;28;20226;-57
2023/03/23 07:47:01;;;;;;;3.57;1.97;;;10.00;99.90;;;;;;5073236;28;20227;-57
2023/03/23 07:49:30;;;;;;;6.77;1.93;;;10.00;99.90;;;;;;5071862;28;20200;-57
2023/03/23 07:52:02;;;;;;;3.03;1.60;;;10.00;99.90;;;;;;5074120;28;20292;-57
2023/03/23 07:54:30;;;;;;;3.23;1.80;;;10.20;99.90;;;;;;5073703;28;20227;-58
2023/03/23 07:56:58;;;;;;;5.57;2.13;;;10.20;99.90;;;;;;5077422;28;20294;-57
2023/03/23 07:59:25;;;;;;;2.10;1.77;;;10.30;99.90;;;;;;5077790;28;20219;-57
2023/03/23 08:01:53;;;;;;;5.27;2.33;;;10.30;99.90;;;;;;5075633;28;20227;-58
2023/03/23 08:04:20;;;;;;;3.23;1.90;;;10.30;99.90;;;;;;5088551;28;20267;-57
2023/03/23 08:06:48;;;;;;;5.20;2.20;;;10.30;99.90;;;;;;5085987;28;20222;-57
2023/03/23 08:09:16;;;;;;;7.10;2.13;;;10.30;99.90;;;;;;5086075;28;20212;-55
2023/03/23 08:11:44;;;;;;;4.67;2.10;;;10.30;99.90;;;;;;5084260;28;20310;-57
2023/03/23 08:14:11;;;;;;;2.43;2.00;;;10.40;99.90;;;;;;5084555;28;20207;-57
2023/03/23 08:16:38;;;;;;;2.37;1.80;;;10.40;99.90;;;;;;5073585;28;20199;-56
2023/03/23 08:19:05;;;;;;;7.30;1.90;;;10.40;99.90;;;;;;5079118;28;20232;-57
2023/03/23 08:21:32;;;;;;;5.67;2.17;;;10.50;99.90;;;;;;5080077;28;20296;-57
2023/03/23 08:24:00;;;;;;;6.40;2.27;;;10.60;99.90;;;;;;5084824;28;20227;-58
2023/03/23 08:26:29;;;;;;;3.43;1.83;;;11.00;99.90;;;;;;5085577;28;20223;-57
2023/03/23 08:28:57;;;;;;;2.93;1.80;;;11.30;99.90;;;;;;5086722;28;20615;-57
2023/03/23 08:31:24;;;;;;;3.07;1.77;;;11.90;99.90;;;;;;5091387;28;20179;-58
2023/03/23 08:33:52;;;;;;;4.43;1.73;;;12.20;99.90;;;;;;5087902;28;20215;-57
2023/03/23 08:36:19;;;;;;;7.20;2.30;;;12.50;99.90;;;;;;5087831;28;20249;-57
2023/03/23 08:38:46;;;;;;;2.40;1.50;;;12.70;99.90;;;;;;5089556;28;20214;-57
2023/03/23 08:41:14;;;;;;;3.50;1.73;;;13.10;99.90;;;;;;5088877;28;20222;-57
2023/03/23 08:43:43;;;;;;;4.33;1.73;;;13.90;99.90;;;;;;5082566;28;20198;-57
2023/03/23 08:46:11;;;;;;;4.57;1.57;;;14.60;99.90;;;;;;5087900;28;20207;-57
2023/03/23 08:48:39;;;;;;;4.07;1.40;;;14.90;99.90;;;;;;5084943;28;20216;-57
2023/03/23 08:51:08;;;;;;;2.87;1.60;;;14.80;99.90;;;;;;5085437;28;20231;-57
2023/03/23 08:53:36;;;;;;;3.87;1.40;;;14.70;99.90;;;;;;5076027;28;21249;-58
2023/03/23 08:56:05;;;;;;;2.67;1.83;;;14.80;99.90;;;;;;5081381;28;20211;-57
2023/03/23 08:58:33;;;;;;;1.87;1.40;;;14.90;99.90;;;;;;5086713;28;20638;-57
2023/03/23 09:01:01;;;;;;;3.60;1.70;;;14.90;99.90;;;;;;5081173;28;20242;-57
2023/03/23 09:03:29;;;;;;;1.77;1.30;;;14.70;99.90;;;;;;5072788;28;20226;-57
2023/03/23 09:06:01;;;;;;;2.50;1.50;;;14.80;99.90;;;;;;5072337;28;20232;-57
2023/03/23 09:08:29;;;;;;;3.17;1.50;;;14.80;99.90;;;;;;5071937;28;20236;-58
2023/03/23 09:10:59;;;;;;;2.83;1.30;;;15.10;99.90;;;;;;5074189;28;20222;-58
2023/03/23 09:13:26;;;;;;;1.30;1.20;;;15.30;99.90;;;;;;5075309;28;20206;-57
2023/03/23 09:15:53;;;;;;;2.00;1.47;;;15.50;99.90;;;;;;5071434;28;20305;-57
2023/03/23 09:18:22;;;;;;;1.50;1.40;;;15.70;99.90;;;;;;5072480;28;20235;-57
2023/03/23 09:20:51;;;;;;;3.63;1.40;;;15.90;99.90;;;;;;5069794;28;20233;-57
2023/03/23 09:23:20;;;;;;;3.70;1.60;;;15.80;99.90;;;;;;5085365;28;20225;-58
2023/03/23 09:25:47;;;;;;;5.70;1.73;;;16.10;99.90;;;;;;5078573;28;20280;-57
2023/03/23 09:28:15;;;;;;;3.13;1.80;;;16.50;99.90;;;;;;5075281;28;20203;-58
2023/03/23 09:30:43;;;;;;;2.97;2.10;;;16.70;99.90;;;;;;5073731;28;20286;-59
2023/03/23 09:33:11;;;;;;;4.40;2.20;;;16.90;99.90;;;;;;5072953;28;20215;-58
2023/03/23 09:35:41;;;;;;;3.77;2.07;;;16.90;99.90;;;;;;5082227;28;20225;-58
2023/03/23 09:38:12;;;;;;;2.53;2.30;;;16.90;99.90;;;;;;5076076;28;20227;-57
2023/03/23 09:40:48;;;;;;;3.17;1.93;;;17.10;99.90;;;;;;5077748;28;20192;-58
2023/03/23 09:43:37;;;;;;;2.10;1.83;;;17.30;99.90;;;;;;5079263;28;20197;-59
2023/03/23 09:46:17;;;;;;;2.23;1.70;;;17.50;99.90;;;;;;5091994;28;20227;-58
2023/03/23 09:48:51;;;;;;;1.70;1.60;;;17.30;99.90;;;;;;5095608;28;20256;-58
2023/03/23 09:51:35;;;;;;;7.03;1.80;;;17.10;99.90;;;;;;5082576;28;20723;-58
2023/03/23 09:54:08;;;;;;;1.63;1.53;;;16.60;99.90;;;;;;5086014;28;20214;-57
2023/03/23 09:56:36;;;;;;;1.80;1.60;;;16.40;99.90;;;;;;5085451;28;20226;-57
2023/03/23 09:59:09;;;;;;;1.90;1.80;;;16.30;99.90;;;;;;5089579;28;20222;-58
2023/03/23 10:01:41;;;;;;;3.03;1.83;;;16.20;99.90;;;;;;5092630;28;20192;-58
2023/03/23 10:04:15;;;;;;;3.43;1.83;;;16.20;99.90;;;;;;5093730;28;20191;-58
2023/03/23 10:06:44;;;;;;;3.60;1.87;;;16.30;99.90;;;;;;5088711;27;20227;-58
2023/03/23 10:09:17;;;;;;;5.40;1.93;;;16.80;99.90;;;;;;5089182;27;20215;-58
2023/03/23 10:11:53;;;;;;;2.10;1.87;;;17.20;99.90;;;;;;5084208;27;20223;-57
2023/03/23 10:14:36;;;;;;;3.77;2.07;;;17.20;99.90;;;;;;5088573;28;20219;-58
2023/03/23 10:17:14;;;;;;;4.33;2.07;;;16.60;99.90;;;;;;5088649;27;20215;-58
2023/03/23 10:19:51;;;;;;;4.07;1.97;;;16.10;99.90;;;;;;5079778;28;20579;-57
2023/03/23 10:22:32;;;;;;;4.33;2.53;;;15.80;99.90;;;;;;5059210;28;20195;-57
2023/03/23 10:25:07;;;;;;;2.60;2.40;;;15.70;99.90;;;;;;5070509;28;21111;-57
2023/03/23 10:27:38;;;;;;;4.97;2.40;;;15.50;99.90;;;;;;5063197;28;20233;-57
2023/03/23 10:30:19;;;;;;;4.87;2.17;;;15.60;99.90;;;;;;5062311;28;20219;-57
2023/03/23 10:32:51;;;;;;;2.80;2.03;;;15.80;99.90;;;;;;5069405;28;20221;-57
2023/03/23 10:35:23;;;;;;;4.43;2.13;;;15.80;99.90;;;;;;5067400;28;20226;-57
2023/03/23 10:37:57;;;;;;;4.77;2.03;;;15.80;99.90;;;;;;5067431;28;20282;-57
2023/03/23 10:40:29;;;;;;;5.23;2.37;;;15.50;99.90;;;;;;5070399;28;20663;-57
2023/03/23 10:42:59;;;;;;;4.40;2.40;;;15.30;99.90;;;;;;5089926;28;20231;-57
2023/03/23 10:45:29;;;;;;;6.97;2.20;;;15.20;99.90;;;;;;5071659;28;20227;-57
2023/03/23 10:48:00;;;;;;;4.97;2.50;;;15.40;99.90;;;;;;5069509;28;20232;-57
2023/03/23 10:50:32;;;;;;;6.07;2.73;;;15.70;99.90;;;;;;5068368;28;20246;-58
2023/03/23 10:53:04;;;;;;;10.97;2.90;;;16.40;99.90;;;;;;5066393;28;20520;-58
2023/03/23 10:55:40;;;;;;;4.83;2.53;;;16.80;99.90;;;;;;5069339;28;20565;-57
2023/03/23 10:58:10;;;;;;;7.50;3.13;;;16.30;99.90;;;;;;5067802;28;20212;-57
2023/03/23 11:00:42;;;;;;;11.40;3.40;;;15.60;99.90;;;;;;5066229;28;20221;-57
2023/03/23 11:03:26;;;;;;;4.77;3.13;;;15.10;99.90;;;;;;5066058;28;20230;-57
2023/03/23 11:05:57;;;;;;;5.90;3.53;;;14.90;99.90;;;;;;5070196;28;20575;-57
2023/03/23 11:08:28;;;;;;;10.10;4.03;;;14.80;99.90;;;;;;5074493;28;20232;-57
2023/03/23 11:10:58;;;;;;;7.53;3.70;;;14.70;99.90;;;;;;5088260;28;20216;-57
2023/03/23 11:13:31;;;;;;;9.53;3.57;;;14.70;99.90;;;;;;5088283;28;20233;-57
2023/03/23 11:16:00;;;;;;;8.57;3.27;;;14.70;99.90;;;;;;5068002;28;20619;-58
2023/03/23 11:18:36;;;;;;;7.37;3.17;;;14.50;99.90;;;;;;5082697;28;20706;-56
2023/03/23 11:21:05;;;;;;;10.13;3.57;;;14.50;99.90;;;;;;5082189;28;20231;-57
2023/03/23 11:23:36;;;;;;;10.83;3.13;;;14.40;99.90;;;;;;5074558;28;20231;-57
2023/03/23 11:26:10;;;;;;;5.87;2.93;;;14.50;99.90;;;;;;5084185;28;20235;-57
2023/03/23 11:28:43;;;;;;;11.73;3.33;;;14.50;99.90;;;;;;5088511;28;20183;-57
2023/03/23 11:31:11;;;;;;;9.67;3.10;;;14.60;99.90;;;;;;5089579;28;20639;-57
2023/03/23 11:33:52;;;;;;;9.43;3.40;;;14.50;99.90;;;;;;5086545;28;20213;-56
2023/03/23 11:36:19;;;;;;;12.10;3.17;;;14.60;99.90;;;;;;5092191;28;20253;-57
2023/03/23 11:38:48;;;;;;;8.97;3.30;;;14.50;99.90;;;;;;5089949;28;20215;-58
2023/03/23 11:41:22;;;;;;;7.97;4.10;;;14.30;99.90;;;;;;5082950;28;20227;-57
2023/03/23 11:43:53;;;;;;;14.23;3.63;;;14.30;99.90;;;;;;5085141;28;20220;-57
2023/03/23 11:46:34;;;;;;;9.07;3.67;;;14.30;99.90;;;;;;5084608;28;20219;-57
2023/03/23 11:49:04;;;;;;;10.20;3.47;;;14.30;99.90;;;;;;5066268;28;20624;-57
2023/03/23 11:51:40;;;;;;;9.73;3.20;;;14.60;99.90;;;;;;5082396;28;20222;-58
2023/03/23 11:54:16;;;;;;;4.23;2.70;;;15.50;99.90;;;;;;5089208;28;20240;-58
2023/03/23 11:56:45;;;;;;;7.40;3.03;;;16.80;99.90;;;;;;5082341;28;20618;-57
2023/03/23 11:59:14;;;;;;;4.50;2.23;;;17.60;99.90;;;;;;5070146;28;20212;-57
2023/03/23 12:01:50;;;;;;;3.80;2.20;;;18.20;99.90;;;;;;5062960;28;20783;-57
2023/03/23 12:04:45;;;;;;;8.33;2.53;;;18.40;99.90;;;;;;5068583;28;20195;-57
2023/03/23 12:07:28;;;;;;;3.50;2.30;;;18.20;99.90;;;;;;5069992;28;20293;-57
2023/03/23 12:10:10;;;;;;;5.13;2.30;;;18.60;99.90;;;;;;5086938;28;20670;-57
2023/03/23 12:12:46;;;;;;;2.97;2.40;;;18.80;99.90;;;;;;5081152;28;20212;-57
2023/03/23 12:15:22;;;;;;;6.63;2.30;;;18.70;99.90;;;;;;5089714;28;20345;-58
2023/03/23 12:18:00;;;;;;;4.37;2.00;;;18.90;99.90;;;;;;5085771;28;20215;-57
2023/03/23 12:20:37;;;;;;;6.97;3.23;;;19.00;99.90;;;;;;5079894;28;20231;-58
2023/03/23 12:23:19;;;;;;;6.73;2.43;;;18.90;99.90;;;;;;5058349;28;20542;-58
2023/03/23 12:26:15;;;;;;;4.17;2.27;;;18.70;99.90;;;;;;5066773;28;20314;-57
2023/03/23 12:29:16;;;;;;;7.47;2.33;;;19.10;99.90;;;;;;5068017;28;20217;-57
2023/03/23 12:31:53;;;;;;;7.80;2.17;;;19.10;99.90;;;;;;5065532;28;20814;-58
2023/03/23 12:34:31;;;;;;;5.70;2.20;;;18.60;99.90;;;;;;5069579;28;20215;-57
2023/03/23 12:37:14;;;;;;;6.90;2.00;;;18.00;99.90;;;;;;5069786;28;20219;-58
2023/03/23 12:40:12;;;;;;;10.33;2.80;;;17.80;99.90;;;;;;5072548;28;20220;-57
2023/03/23 12:42:56;;;;;;;6.27;2.70;;;18.10;99.90;;;;;;5068524;28;20625;-57
2023/03/23 12:45:42;;;;;;;6.13;2.60;;;18.30;99.90;;;;;;5065857;28;20273;-58
2023/03/23 12:48:13;;;;;;;7.13;2.70;;;18.40;99.90;;;;;;5070268;28;20212;-58
2023/03/23 12:50:46;;;;;;;8.20;2.40;;;18.80;99.90;;;;;;5065023;28;20216;-57
2023/03/23 12:53:19;;;;;;;4.70;2.50;;;18.80;99.90;;;;;;5070554;28;20578;-58
2023/03/23 12:55:49;;;;;;;4.77;2.10;;;18.30;99.90;;;;;;5066494;28;20231;-57
2023/03/23 12:58:22;;;;;;;7.50;2.20;;;17.90;99.90;;;;;;5066185;28;20196;-56
2023/03/23 13:00:58;;;;;;;9.47;2.80;;;17.40;99.90;;;;;;5063977;28;20297;-57
2023/03/23 13:03:33;;;;;;;7.10;2.80;;;17.00;99.90;;;;;;5070326;28;20223;-57
2023/03/23 13:06:07;;;;;;;4.03;2.17;;;16.60;99.90;;;;;;5064304;28;20680;-58
2023/03/23 13:08:40;;;;;;;8.63;2.67;;;16.10;99.90;;;;;;5054468;28;20689;-57